• Join FlightAware (Why Join?)
  • Login
  • US Flag 
07:05AM EDT


 

Airport Tracker/Info


-or-


 

Live Flight TrackerFlight Track Log ✈ N133VU ✈ 25-May-2013 ✈ OOTH / TTH - KEYE

Flight Track Log - Related Links

Times and Time Zones

All times are in EDT time to prevent confusion due to time zone crossing. See the N133VU flight status page for this flight to view local times or setup timezone preferences in your user account.

Time Position Orientation Groundspeed Altitude Reporting Facility
EDT Latitude Longitude Course Direction KTS MPH feet Rate Location/Type
12:36AM 17.8427 53.9093 328° Northwest  Level Estimated
12:37AM 17.8722 53.8901 328° Northwest  Level Estimated
12:38AM 17.9016 53.8708 328° Northwest  Level Estimated
12:39AM 17.9310 53.8516 328° Northwest  Level Estimated
12:40AM 17.9605 53.8323 328° Northwest  Level Estimated
12:41AM 17.9899 53.8131 328° Northwest  Level Estimated
12:42AM 18.0194 53.7938 328° Northwest  Level Estimated
12:43AM 18.0483 53.7748 328° Northwest  Level Estimated
12:44AM 18.0773 53.7558 328° Northwest  Level Estimated
12:45AM 18.1063 53.7369 328° Northwest  Level Estimated
12:46AM 18.1352 53.7179 328° Northwest  Level Estimated
12:47AM 18.1642 53.6989 328° Northwest  Level Estimated
12:48AM 18.1932 53.6799 328° Northwest  Level Estimated
12:49AM 18.2221 53.6608 328° Northwest  Level Estimated
12:50AM 18.2511 53.6418 328° Northwest  Level Estimated
12:51AM 18.2801 53.6228 328° Northwest  Level Estimated
12:52AM 18.3090 53.6038 328° Northwest  Level Estimated
12:53AM 18.3380 53.5847 328° Northwest  Level Estimated
12:54AM 18.3669 53.5657 328° Northwest  Level Estimated
12:55AM 18.3959 53.5466 328° Northwest  Level Estimated
12:56AM 18.4248 53.5276 328° Northwest  Level Estimated
12:57AM 18.4538 53.5085 328° Northwest  Level Estimated
12:58AM 18.4827 53.4894 328° Northwest  Level Estimated
12:59AM 18.5117 53.4704 328° Northwest  Level Estimated
01:00AM 18.5406 53.4513 328° Northwest  Level Estimated
01:01AM 18.5695 53.4322 328° Northwest  Level Estimated
01:02AM 18.5985 53.4131 328° Northwest  Level Estimated
01:03AM 18.6274 53.3940 328° Northwest  Level Estimated
01:04AM 18.6564 53.3749 328° Northwest  Level Estimated
01:05AM 18.6853 53.3558 328° Northwest  Level Estimated
01:06AM 18.7142 53.3366 328° Northwest  Level Estimated
01:07AM 18.7432 53.3175 328° Northwest  Level Estimated
01:08AM 18.7721 53.2984 328° Northwest  Level Estimated
01:09AM 18.8010 53.2792 328° Northwest  Level Estimated
01:10AM 18.8299 53.2601 328° Northwest  Level Estimated
01:11AM 18.8589 53.2409 328° Northwest  Level Estimated
01:12AM 18.8878 53.2218 328° Northwest  Level Estimated
01:13AM 18.9167 53.2026 328° Northwest  Level Estimated
01:14AM 18.9456 53.1834 328° Northwest  Level Estimated
01:15AM 18.9745 53.1642 328° Northwest  Level Estimated
01:16AM 19.0034 53.1450 328° Northwest  Level Estimated
01:17AM 19.0323 53.1258 328° Northwest  Level Estimated
01:18AM 19.0613 53.1066 328° Northwest  Level Estimated
01:19AM 19.0902 53.0874 328° Northwest  Level Estimated
01:20AM 19.1191 53.0682 328° Northwest  Level Estimated
01:21AM 19.1480 53.0490 328° Northwest  Level Estimated
01:22AM 19.1769 53.0298 328° Northwest  Level Estimated
01:23AM 19.2058 53.0105 328° Northwest  Level Estimated
01:24AM 19.2347 52.9913 328° Northwest  Level Estimated
01:25AM 19.2635 52.9720 328° Northwest  Level Estimated
01:26AM 19.2924 52.9528 328° Northwest  Level Estimated
01:27AM 19.3213 52.9335 328° Northwest  Level Estimated
01:28AM 19.3502 52.9142 328° Northwest  Level Estimated
01:29AM 19.3791 52.8950 328° Northwest  Level Estimated
01:30AM 19.4080 52.8757 328° Northwest  Level Estimated
01:31AM 19.4369 52.8564 328° Northwest  Level Estimated
01:32AM 19.4657 52.8371 328° Northwest  Level Estimated
01:33AM 19.4946 52.8178 328° Northwest  Level Estimated
01:34AM 19.5235 52.7985 328° Northwest  Level Estimated
01:35AM 19.5524 52.7792 328° Northwest  Level Estimated
01:36AM 19.5812 52.7598 328° Northwest  Level Estimated
01:37AM 19.6101 52.7405 328° Northwest  Level Estimated
01:38AM 19.6390 52.7212 328° Northwest  Level Estimated
01:39AM 19.6679 52.7018 328° Northwest  Level Estimated
01:40AM 19.6967 52.6825 328° Northwest  Level Estimated
01:41AM 19.7256 52.6631 328° Northwest  Level Estimated
01:42AM 19.7544 52.6437 328° Northwest  Level Estimated
01:43AM 19.7833 52.6244 328° Northwest  Level Estimated
01:44AM 19.8121 52.6050 328° Northwest  Level Estimated
01:45AM 19.8410 52.5856 328° Northwest  Level Estimated
01:46AM 19.8699 52.5662 328° Northwest  Level Estimated
01:47AM 19.8987 52.5468 328° Northwest  Level Estimated
01:48AM 19.9275 52.5274 328° Northwest  Level Estimated
01:49AM 19.9564 52.5080 328° Northwest  Level Estimated
01:50AM 19.9852 52.4886 328° Northwest  Level Estimated
01:51AM 20.0141 52.4691 328° Northwest  Level Estimated
01:52AM 20.0429 52.4497 328° Northwest  Level Estimated
01:53AM 20.0718 52.4302 328° Northwest  Level Estimated
01:54AM 20.1006 52.4108 328° Northwest  Level Estimated
01:55AM 20.1294 52.3913 328° Northwest  Level Estimated
01:56AM 20.1582 52.3719 328° Northwest  Level Estimated
01:57AM 20.1871 52.3524 328° Northwest  Level Estimated
01:58AM 20.2159 52.3329 328° Northwest  Level Estimated
01:59AM 20.2447 52.3134 328° Northwest  Level Estimated
02:00AM 20.2735 52.2939 328° Northwest  Level Estimated
02:01AM 20.3024 52.2744 328° Northwest  Level Estimated
02:02AM 20.3312 52.2549 328° Northwest  Level Estimated
02:03AM 20.3600 52.2354 328° Northwest  Level Estimated
02:04AM 20.3888 52.2159 328° Northwest  Level Estimated
02:05AM 20.4176 52.1964 328° Northwest  Level Estimated
02:06AM 20.4464 52.1768 328° Northwest  Level Estimated
02:07AM 20.4752 52.1573 328° Northwest  Level Estimated
02:08AM 20.5040 52.1377 328° Northwest  Level Estimated
02:09AM 20.5328 52.1182 328° Northwest  Level Estimated
02:10AM 20.5616 52.0986 328° Northwest  Level Estimated
02:11AM 20.5904 52.0790 328° Northwest  Level Estimated
02:12AM 20.6192 52.0594 328° Northwest  Level Estimated
02:13AM 20.6480 52.0398 328° Northwest  Level Estimated
02:14AM 20.6768 52.0202 328° Northwest  Level Estimated
02:15AM 20.7056 52.0006 328° Northwest  Level Estimated
02:16AM 20.7344 51.9810 327° Northwest  Level Estimated
02:17AM 20.7632 51.9614 327° Northwest  Level Estimated
02:18AM 20.7919 51.9418 327° Northwest  Level Estimated
02:19AM 20.8207 51.9222 327° Northwest  Level Estimated
02:20AM 20.8495 51.9025 327° Northwest  Level Estimated
02:21AM 20.8783 51.8829 327° Northwest  Level Estimated
02:22AM 20.9070 51.8632 327° Northwest  Level Estimated
02:23AM 20.9358 51.8436 327° Northwest  Level Estimated
02:24AM 20.9646 51.8239 327° Northwest  Level Estimated
02:25AM 20.9933 51.8042 327° Northwest  Level Estimated
02:26AM 21.0221 51.7845 327° Northwest  Level Estimated
02:27AM 21.0509 51.7648 327° Northwest  Level Estimated
02:28AM 21.0796 51.7451 327° Northwest  Level Estimated
02:29AM 21.1084 51.7254 327° Northwest  Level Estimated
02:30AM 21.1371 51.7057 327° Northwest  Level Estimated
02:31AM 21.1659 51.6860 327° Northwest  Level Estimated
02:32AM 21.1946 51.6662 327° Northwest  Level Estimated
02:33AM 21.2234 51.6465 327° Northwest  Level Estimated
02:34AM 21.2521 51.6267 327° Northwest  Level Estimated
02:35AM 21.2809 51.6070 327° Northwest  Level Estimated
02:36AM 21.3096 51.5872 327° Northwest  Level Estimated
02:37AM 21.3384 51.5675 327° Northwest  Level Estimated
02:38AM 21.3671 51.5477 327° Northwest  Level Estimated
02:39AM 21.3958 51.5279 327° Northwest  Level Estimated
02:40AM 21.4246 51.5081 327° Northwest  Level Estimated
02:41AM 21.4533 51.4883 327° Northwest  Level Estimated
02:42AM 21.4820 51.4685 327° Northwest  Level Estimated
02:43AM 21.5107 51.4487 327° Northwest  Level Estimated
02:44AM 21.5395 51.4288 327° Northwest  Level Estimated
02:45AM 21.5682 51.4090 327° Northwest  Level Estimated
02:46AM 21.5969 51.3892 327° Northwest  Level Estimated
02:47AM 21.6256 51.3693 327° Northwest  Level Estimated
02:48AM 21.6543 51.3494 327° Northwest  Level Estimated
02:49AM 21.6830 51.3296 327° Northwest  Level Estimated
02:50AM 21.7117 51.3097 327° Northwest  Level Estimated
02:51AM 21.7404 51.2898 327° Northwest  Level Estimated
02:52AM 21.7691 51.2699 327° Northwest  Level Estimated
02:53AM 21.7978 51.2500 327° Northwest  Level Estimated
02:54AM 21.8265 51.2301 327° Northwest  Level Estimated